createdAt,value
2023-01-10T00:00:05.118Z,20.00
2023-01-10T00:01:05.077Z,19.70
2023-01-10T00:02:05.073Z,19.50
2023-01-10T00:03:05.088Z,19.40
2023-01-10T00:04:05.070Z,19.20
2023-01-10T00:05:05.095Z,19.10
2023-01-10T00:06:05.073Z,19.00
2023-01-10T00:07:05.061Z,19.10
2023-01-10T00:08:05.068Z,19.10
2023-01-10T00:09:05.056Z,18.80
2023-01-10T00:10:05.055Z,18.20
2023-01-10T00:11:05.051Z,18.40
2023-01-10T00:12:05.045Z,18.30
2023-01-10T00:13:05.043Z,17.90
2023-01-10T00:14:05.045Z,18.00
2023-01-10T00:15:05.043Z,18.20
2023-01-10T00:16:05.134Z,18.10
2023-01-10T00:17:05.031Z,17.60
2023-01-10T00:18:05.031Z,18.20
2023-01-10T00:19:05.026Z,17.90
2023-01-10T00:20:05.020Z,18.20
2023-01-10T00:21:05.040Z,18.50
2023-01-10T00:22:05.013Z,18.30
2023-01-10T00:23:05.017Z,18.00
2023-01-10T00:24:05.008Z,17.70
2023-01-10T00:25:05.077Z,17.90
2023-01-10T00:26:05.002Z,17.80
2023-01-10T00:27:05.005Z,18.10
2023-01-10T00:28:04.998Z,17.80
2023-01-10T00:29:05.004Z,18.20
2023-01-10T00:30:04.990Z,18.00
2023-01-10T00:31:05.041Z,18.10
2023-01-10T00:32:04.999Z,17.40
2023-01-10T00:33:04.989Z,17.30
2023-01-10T00:34:04.981Z,17.40
2023-01-10T00:35:04.988Z,17.70
2023-01-10T00:36:04.969Z,17.60
2023-01-10T00:37:04.998Z,17.50
2023-01-10T00:38:04.982Z,17.70
2023-01-10T00:39:04.977Z,17.70
2023-01-10T00:40:04.964Z,17.60
2023-01-10T00:41:04.967Z,17.60
2023-01-10T00:42:04.960Z,18.00
2023-01-10T00:43:04.957Z,17.70
2023-01-10T00:44:04.956Z,17.50
2023-01-10T00:45:04.951Z,17.80
2023-01-10T00:46:05.033Z,17.70
2023-01-10T00:47:04.945Z,17.90
2023-01-10T00:48:04.936Z,17.70
2023-01-10T00:49:04.932Z,17.80
2023-01-10T00:50:04.940Z,17.20
2023-01-10T00:51:04.931Z,17.70
2023-01-10T00:52:04.924Z,17.30
2023-01-10T00:53:04.950Z,17.50
2023-01-10T00:54:04.933Z,17.70
2023-01-10T00:55:04.920Z,17.40
2023-01-10T00:56:04.916Z,17.40
2023-01-10T00:57:04.921Z,17.30
2023-01-10T00:58:04.907Z,17.20
2023-01-10T00:59:04.928Z,18.20
2023-01-10T01:00:04.907Z,17.50
2023-01-10T01:01:04.971Z,17.40
2023-01-10T01:02:04.923Z,17.70
2023-01-10T01:03:04.923Z,17.10
2023-01-10T01:04:04.895Z,17.60
2023-01-10T01:05:04.897Z,17.60
2023-01-10T01:06:04.890Z,18.00
2023-01-10T01:07:04.891Z,17.60
2023-01-10T01:08:04.884Z,17.90
2023-01-10T01:09:04.911Z,17.80
2023-01-10T01:10:04.878Z,17.80
2023-01-10T01:11:04.883Z,17.90
2023-01-10T01:12:04.869Z,17.60
2023-01-10T01:13:04.869Z,18.00
2023-01-10T01:14:04.867Z,17.80
2023-01-10T01:15:04.865Z,17.80
2023-01-10T01:16:04.900Z,18.00
2023-01-10T01:17:04.867Z,17.80
2023-01-10T01:18:04.861Z,18.00
2023-01-10T01:19:04.857Z,17.80
2023-01-10T01:20:04.852Z,17.90
2023-01-10T01:21:04.843Z,17.90
2023-01-10T01:22:04.846Z,17.90
2023-01-10T01:23:04.845Z,17.90
2023-01-10T01:24:04.836Z,18.10
2023-01-10T01:25:04.860Z,17.80
2023-01-10T01:26:04.829Z,17.40
2023-01-10T01:27:04.834Z,17.80
2023-01-10T01:28:04.821Z,17.60
2023-01-10T01:29:04.824Z,17.50
2023-01-10T01:30:04.821Z,17.50
2023-01-10T01:31:04.868Z,17.20
2023-01-10T01:32:04.813Z,17.20
2023-01-10T01:33:04.817Z,17.90
2023-01-10T01:34:04.803Z,17.50
2023-01-10T01:35:04.807Z,17.00
2023-01-10T01:36:04.802Z,17.20
2023-01-10T01:37:04.809Z,17.10
2023-01-10T01:38:04.795Z,17.10
2023-01-10T01:39:04.799Z,17.40
2023-01-10T01:40:04.789Z,17.60
2023-01-10T01:41:04.810Z,17.10
2023-01-10T01:42:04.784Z,17.10
2023-01-10T01:43:04.782Z,17.10
2023-01-10T01:44:04.778Z,17.50
2023-01-10T01:45:04.780Z,17.20
2023-01-10T01:46:04.820Z,17.50
2023-01-10T01:47:04.779Z,17.30
2023-01-10T01:48:04.764Z,17.40
2023-01-10T01:49:04.771Z,17.40
2023-01-10T01:50:04.762Z,17.50
2023-01-10T01:51:04.773Z,17.20
2023-01-10T01:52:04.765Z,17.20
2023-01-10T01:53:04.767Z,17.00
2023-01-10T01:54:04.753Z,16.30
2023-01-10T01:55:04.754Z,16.60
2023-01-10T01:56:04.750Z,17.00
2023-01-10T01:57:04.765Z,16.60
2023-01-10T01:58:04.737Z,16.80
2023-01-10T01:59:04.742Z,16.60
2023-01-10T02:00:04.732Z,16.60
2023-01-10T02:01:04.761Z,16.90
2023-01-10T02:02:04.791Z,16.60
2023-01-10T02:03:04.746Z,16.70
2023-01-10T02:04:04.760Z,16.80
2023-01-10T02:05:04.724Z,16.60
2023-01-10T02:06:04.725Z,16.70
2023-01-10T02:07:04.726Z,16.60
2023-01-10T02:08:04.710Z,16.90
2023-01-10T02:09:04.726Z,16.90
2023-01-10T02:10:04.710Z,16.80
2023-01-10T02:11:04.755Z,17.00
2023-01-10T02:12:04.703Z,17.20
2023-01-10T02:13:04.718Z,18.20
2023-01-10T02:14:04.698Z,16.90
2023-01-10T02:15:04.749Z,16.90
2023-01-10T02:16:04.745Z,16.40
2023-01-10T02:17:04.693Z,16.90
2023-01-10T02:18:04.680Z,16.80
2023-01-10T02:19:04.678Z,16.80
2023-01-10T02:20:04.681Z,17.10
2023-01-10T02:21:04.694Z,16.60
2023-01-10T02:22:04.666Z,16.30
2023-01-10T02:23:04.686Z,16.70
2023-01-10T02:24:04.660Z,16.70
2023-01-10T02:25:04.668Z,16.90
2023-01-10T02:26:04.661Z,16.70
2023-01-10T02:27:04.660Z,17.00
2023-01-10T02:28:04.654Z,17.10
2023-01-10T02:29:04.674Z,16.80
2023-01-10T02:30:04.660Z,17.00
2023-01-10T02:31:04.690Z,16.70
2023-01-10T02:32:04.640Z,17.40
2023-01-10T02:33:05.732Z,17.00
2023-01-10T02:34:04.653Z,17.20
2023-01-10T02:35:04.761Z,17.30
2023-01-10T02:36:04.630Z,17.10
2023-01-10T02:37:04.627Z,17.20
2023-01-10T02:38:04.624Z,17.60
2023-01-10T02:39:04.622Z,17.30
2023-01-10T02:40:04.619Z,17.50
2023-01-10T02:41:04.619Z,17.40
2023-01-10T02:42:04.618Z,17.30
2023-01-10T02:43:04.613Z,17.70
2023-01-10T02:44:04.609Z,17.30
2023-01-10T02:45:04.630Z,17.30
2023-01-10T02:46:04.667Z,17.30
2023-01-10T02:47:04.612Z,17.40
2023-01-10T02:48:04.596Z,17.40
2023-01-10T02:49:04.597Z,17.80
2023-01-10T02:50:04.590Z,17.60
2023-01-10T02:51:04.592Z,17.70
2023-01-10T02:52:04.580Z,17.60
2023-01-10T02:53:04.588Z,17.40
2023-01-10T02:54:04.575Z,17.70
2023-01-10T02:55:04.577Z,17.60
2023-01-10T02:56:04.571Z,17.40
2023-01-10T02:57:04.572Z,17.50
2023-01-10T02:58:04.570Z,17.60
2023-01-10T02:59:04.562Z,17.30
2023-01-10T03:00:04.563Z,17.50
2023-01-10T03:01:04.595Z,17.50
2023-01-10T03:02:04.657Z,17.00
2023-01-10T03:03:04.553Z,17.70
2023-01-10T03:04:04.544Z,17.20
2023-01-10T03:05:04.631Z,17.50
2023-01-10T03:06:04.544Z,17.70
2023-01-10T03:07:04.541Z,17.00
2023-01-10T03:08:04.541Z,16.90
2023-01-10T03:09:04.541Z,17.10
2023-01-10T03:10:04.540Z,17.30
2023-01-10T03:11:04.534Z,17.00
2023-01-10T03:12:04.527Z,17.00
2023-01-10T03:13:04.523Z,16.90
2023-01-10T03:14:04.519Z,17.40
2023-01-10T03:15:04.518Z,16.60
2023-01-10T03:16:04.551Z,16.90
2023-01-10T03:17:04.988Z,16.90
2023-01-10T03:18:04.509Z,17.00
2023-01-10T03:19:04.506Z,16.70
2023-01-10T03:20:04.506Z,16.90
2023-01-10T03:21:04.507Z,16.60
2023-01-10T03:22:04.521Z,17.00
2023-01-10T03:23:04.504Z,17.50
2023-01-10T03:24:04.492Z,17.10
2023-01-10T03:25:04.489Z,16.70
2023-01-10T03:26:04.486Z,17.00
2023-01-10T03:27:04.495Z,17.40
2023-01-10T03:28:04.478Z,17.20
2023-01-10T03:29:04.478Z,16.70
2023-01-10T03:30:04.477Z,16.60
2023-01-10T03:31:04.524Z,16.80
2023-01-10T03:32:04.467Z,16.30
2023-01-10T03:33:04.483Z,16.70
2023-01-10T03:34:04.465Z,16.80
2023-01-10T03:35:04.471Z,17.00
2023-01-10T03:36:04.457Z,16.70
2023-01-10T03:37:04.457Z,16.50
2023-01-10T03:38:04.448Z,16.80
2023-01-10T03:39:04.452Z,16.50
2023-01-10T03:40:04.444Z,16.70
2023-01-10T03:41:04.451Z,17.00
2023-01-10T03:42:04.439Z,16.30
2023-01-10T03:43:04.447Z,16.10
2023-01-10T03:44:04.446Z,16.70
2023-01-10T03:45:04.429Z,16.20
2023-01-10T03:46:04.436Z,16.90
2023-01-10T03:47:04.430Z,16.70
2023-01-10T03:48:04.431Z,16.70
2023-01-10T03:49:04.446Z,16.90
2023-01-10T03:50:04.420Z,16.70
2023-01-10T03:51:04.421Z,16.10
2023-01-10T03:52:04.414Z,16.40
2023-01-10T03:53:04.429Z,16.30
2023-01-10T03:54:04.407Z,16.90
2023-01-10T03:55:04.403Z,16.80
2023-01-10T03:56:04.412Z,17.20
2023-01-10T03:57:04.400Z,17.30
2023-01-10T03:58:04.398Z,16.90
2023-01-10T03:59:04.390Z,16.70
2023-01-10T04:00:04.392Z,17.60
2023-01-10T04:01:04.510Z,17.10
2023-01-10T04:02:04.573Z,16.60
2023-01-10T04:03:04.397Z,16.80
2023-01-10T04:04:04.793Z,16.40
2023-01-10T04:05:04.403Z,16.70
2023-01-10T04:06:04.381Z,16.30
2023-01-10T04:07:04.374Z,15.90
2023-01-10T04:08:04.367Z,16.30
2023-01-10T04:09:04.360Z,16.50
2023-01-10T04:10:04.365Z,16.40
2023-01-10T04:11:04.369Z,16.20
2023-01-10T04:12:04.359Z,16.30
2023-01-10T04:13:04.350Z,16.80
2023-01-10T04:14:04.364Z,16.50
2023-01-10T04:15:04.674Z,16.40
2023-01-10T04:16:04.383Z,16.60
2023-01-10T04:17:04.338Z,16.40
2023-01-10T04:18:04.340Z,16.70
2023-01-10T04:19:04.334Z,17.40
2023-01-10T04:20:04.332Z,16.80
2023-01-10T04:21:04.352Z,17.10
2023-01-10T04:22:04.328Z,16.80
2023-01-10T04:23:04.326Z,16.80
2023-01-10T04:24:04.319Z,16.50
2023-01-10T04:25:04.316Z,17.10
2023-01-10T04:26:04.317Z,16.80
2023-01-10T04:27:04.309Z,17.20
2023-01-10T04:28:04.310Z,16.80
2023-01-10T04:29:04.306Z,17.00
2023-01-10T04:30:04.308Z,16.80
2023-01-10T04:31:04.310Z,16.80
2023-01-10T04:32:04.302Z,16.00
2023-01-10T04:33:04.293Z,16.10
2023-01-10T04:34:04.294Z,16.50
2023-01-10T04:35:04.286Z,16.70
2023-01-10T04:36:04.291Z,16.70
2023-01-10T04:37:04.300Z,16.90
2023-01-10T04:38:04.285Z,16.70
2023-01-10T04:39:04.283Z,16.30
2023-01-10T04:40:04.278Z,16.40
2023-01-10T04:41:04.269Z,16.40
2023-01-10T04:42:04.277Z,16.00
2023-01-10T04:43:04.265Z,16.70
2023-01-10T04:44:04.274Z,16.30
2023-01-10T04:45:04.263Z,16.50
2023-01-10T04:46:04.327Z,16.40
2023-01-10T04:47:04.266Z,16.50
2023-01-10T04:48:04.264Z,16.20
2023-01-10T04:49:04.262Z,16.60
2023-01-10T04:50:04.250Z,16.30
2023-01-10T04:51:04.247Z,16.80
2023-01-10T04:52:04.244Z,16.40
2023-01-10T04:53:04.261Z,16.20
2023-01-10T04:54:04.344Z,16.20
2023-01-10T04:55:04.237Z,16.50
2023-01-10T04:56:04.241Z,16.30
2023-01-10T04:57:04.228Z,16.30
2023-01-10T04:58:04.232Z,16.10
2023-01-10T04:59:04.221Z,16.00
2023-01-10T05:00:04.304Z,15.80
2023-01-10T05:01:04.250Z,16.10
2023-01-10T05:02:04.302Z,15.40
2023-01-10T05:03:04.448Z,15.40
2023-01-10T05:04:04.209Z,15.20
2023-01-10T05:05:04.331Z,15.40
2023-01-10T05:06:04.209Z,15.80
2023-01-10T05:07:04.198Z,14.80
2023-01-10T05:08:04.204Z,15.30
2023-01-10T05:09:04.210Z,15.80
2023-01-10T05:10:04.189Z,15.40
2023-01-10T05:11:04.191Z,15.40
2023-01-10T05:12:04.188Z,16.10
2023-01-10T05:13:04.208Z,15.90
2023-01-10T05:14:04.186Z,18.80
2023-01-10T05:15:04.183Z,15.50
2023-01-10T05:16:04.178Z,15.90
2023-01-10T05:17:04.181Z,15.40
2023-01-10T05:18:04.178Z,15.60
2023-01-10T05:19:04.164Z,15.30
2023-01-10T05:20:04.261Z,15.50
2023-01-10T05:21:04.158Z,15.30
2023-01-10T05:22:04.158Z,15.40
2023-01-10T05:23:04.160Z,15.80
2023-01-10T05:24:04.157Z,15.20
2023-01-10T05:25:04.170Z,15.70
2023-01-10T05:26:04.149Z,14.90
2023-01-10T05:27:04.165Z,14.70
2023-01-10T05:28:04.146Z,17.60
2023-01-10T05:29:04.141Z,15.10
2023-01-10T05:30:04.152Z,15.40
2023-01-10T05:31:04.134Z,14.80
2023-01-10T05:32:04.133Z,15.00
2023-01-10T05:33:04.127Z,15.00
2023-01-10T05:34:04.127Z,15.00
2023-01-10T05:35:04.119Z,14.70
2023-01-10T05:36:04.124Z,14.40
2023-01-10T05:37:04.118Z,15.90
2023-01-10T05:38:04.124Z,14.80
2023-01-10T05:39:04.108Z,15.00
2023-01-10T05:40:04.108Z,15.20
2023-01-10T05:41:04.124Z,14.90
2023-01-10T05:42:04.109Z,14.40
2023-01-10T05:43:04.104Z,14.80
2023-01-10T05:44:04.101Z,14.90
2023-01-10T05:45:04.105Z,15.30
2023-01-10T05:46:04.197Z,14.50
2023-01-10T05:47:04.092Z,15.10
2023-01-10T05:48:04.092Z,15.40
2023-01-10T05:49:04.089Z,14.60
2023-01-10T05:50:04.086Z,15.30
2023-01-10T05:51:04.096Z,14.70
2023-01-10T05:52:04.079Z,15.00
2023-01-10T05:53:04.076Z,14.90
2023-01-10T05:54:04.073Z,18.00
2023-01-10T05:55:04.073Z,15.20
2023-01-10T05:56:04.076Z,14.80
2023-01-10T05:57:04.082Z,15.10
2023-01-10T05:58:04.066Z,14.00
2023-01-10T05:59:08.040Z,14.50
2023-01-10T06:00:05.200Z,14.40
2023-01-10T06:01:04.131Z,14.30
2023-01-10T06:02:04.091Z,14.20
2023-01-10T06:03:04.135Z,14.10
2023-01-10T06:04:04.055Z,14.00
2023-01-10T06:05:04.062Z,14.40
2023-01-10T06:06:04.045Z,14.30
2023-01-10T06:07:04.038Z,14.50
2023-01-10T06:08:04.038Z,14.20
2023-01-10T06:09:04.028Z,14.00
2023-01-10T06:10:04.030Z,14.50
2023-01-10T06:11:04.023Z,14.30
2023-01-10T06:12:04.027Z,13.80
2023-01-10T06:13:04.042Z,13.90
2023-01-10T06:14:04.027Z,13.60
2023-01-10T06:15:04.011Z,14.00
2023-01-10T06:16:04.071Z,15.00
2023-01-10T06:17:04.011Z,13.90
2023-01-10T06:18:04.025Z,13.70
2023-01-10T06:19:04.013Z,14.00
2023-01-10T06:20:04.023Z,13.80
2023-01-10T06:21:04.014Z,13.70
2023-01-10T06:22:04.002Z,14.30
2023-01-10T06:23:03.992Z,13.90
2023-01-10T06:24:03.995Z,14.00
2023-01-10T06:25:03.992Z,13.90
2023-01-10T06:26:03.996Z,13.70
2023-01-10T06:27:03.981Z,13.30
2023-01-10T06:28:03.994Z,13.40
2023-01-10T06:29:04.001Z,13.20
2023-01-10T06:30:03.980Z,13.20
2023-01-10T06:31:04.033Z,13.50
2023-01-10T06:32:03.972Z,14.00
2023-01-10T06:33:03.966Z,14.10
2023-01-10T06:34:03.967Z,14.00
2023-01-10T06:35:03.969Z,13.40
2023-01-10T06:36:03.973Z,13.70
2023-01-10T06:37:03.965Z,13.10
2023-01-10T06:38:03.976Z,13.10
2023-01-10T06:39:03.949Z,13.60
2023-01-10T06:40:03.956Z,13.20
2023-01-10T06:41:03.947Z,13.00
2023-01-10T06:42:03.946Z,13.30
2023-01-10T06:43:03.958Z,13.10
2023-01-10T06:44:03.944Z,13.40
2023-01-10T06:45:03.958Z,13.60
2023-01-10T06:46:03.952Z,13.30
2023-01-10T06:47:03.931Z,13.30
2023-01-10T06:48:03.934Z,12.90
2023-01-10T06:49:03.931Z,13.00
2023-01-10T06:50:03.935Z,13.10
2023-01-10T06:51:03.926Z,13.20
2023-01-10T06:52:03.923Z,12.60
2023-01-10T06:53:03.917Z,13.10
2023-01-10T06:54:03.917Z,13.20
2023-01-10T06:55:03.913Z,13.00
2023-01-10T06:56:03.910Z,12.90
2023-01-10T06:57:03.912Z,13.60
2023-01-10T06:58:03.929Z,12.90
2023-01-10T06:59:03.905Z,13.80
2023-01-10T07:00:03.911Z,12.90
2023-01-10T07:01:04.124Z,13.20
2023-01-10T07:02:04.140Z,12.80
2023-01-10T07:03:03.894Z,13.50
2023-01-10T07:04:03.981Z,13.10
2023-01-10T07:05:03.885Z,13.30
2023-01-10T07:06:03.887Z,13.30
2023-01-10T07:07:03.886Z,13.40
2023-01-10T07:08:03.889Z,12.90
2023-01-10T07:09:03.876Z,12.60
2023-01-10T07:10:03.872Z,12.80
2023-01-10T07:11:03.888Z,13.20
2023-01-10T07:12:03.869Z,13.40
2023-01-10T07:13:03.865Z,13.30
2023-01-10T07:14:03.869Z,13.30
2023-01-10T07:15:03.859Z,12.90
2023-01-10T07:16:03.859Z,13.10
2023-01-10T07:17:03.877Z,13.00
2023-01-10T07:18:03.859Z,13.20
2023-01-10T07:19:03.847Z,12.30
2023-01-10T07:20:03.853Z,12.70
2023-01-10T07:21:03.866Z,12.40
2023-01-10T07:22:03.846Z,12.90
2023-01-10T07:23:03.857Z,12.50
2023-01-10T07:24:03.838Z,13.60
2023-01-10T07:25:03.840Z,12.80
2023-01-10T07:26:03.847Z,12.90
2023-01-10T07:27:03.829Z,13.20
2023-01-10T07:28:03.829Z,13.30
2023-01-10T07:29:03.821Z,13.70
2023-01-10T07:30:03.822Z,12.40
2023-01-10T07:31:03.870Z,12.60
2023-01-10T07:32:03.818Z,12.60
2023-01-10T07:33:03.840Z,12.70
2023-01-10T07:34:03.822Z,12.90
2023-01-10T07:35:03.815Z,12.50
2023-01-10T07:36:03.804Z,12.40
2023-01-10T07:37:03.802Z,12.00
2023-01-10T07:38:03.807Z,12.20
2023-01-10T07:39:03.797Z,11.90
2023-01-10T07:40:03.801Z,12.40
2023-01-10T07:41:03.788Z,12.60
2023-01-10T07:42:03.794Z,12.90
2023-01-10T07:43:03.791Z,12.60
2023-01-10T07:44:03.785Z,13.00
2023-01-10T07:45:03.784Z,12.80
2023-01-10T07:46:03.862Z,13.80
2023-01-10T07:47:03.790Z,13.40
2023-01-10T07:48:03.774Z,13.30
2023-01-10T07:49:03.787Z,13.30
2023-01-10T07:50:03.769Z,13.50
2023-01-10T07:51:03.772Z,12.80
2023-01-10T07:52:03.793Z,12.10
2023-01-10T07:53:03.763Z,12.60
2023-01-10T07:54:03.771Z,13.00
2023-01-10T07:55:03.809Z,12.80
2023-01-10T07:56:03.773Z,14.30
2023-01-10T07:57:03.759Z,13.90
2023-01-10T07:58:03.757Z,14.10
2023-01-10T07:59:03.740Z,12.10
2023-01-10T08:00:03.744Z,13.10
2023-01-10T08:01:03.797Z,13.40
2023-01-10T08:02:03.736Z,12.70
2023-01-10T08:03:03.919Z,13.30
2023-01-10T08:04:03.755Z,14.00
2023-01-10T08:05:03.798Z,15.10
2023-01-10T08:06:03.722Z,13.40
2023-01-10T08:07:03.736Z,13.30
2023-01-10T08:08:03.725Z,13.50
2023-01-10T08:09:03.724Z,13.00
2023-01-10T08:10:03.714Z,14.10
2023-01-10T08:11:03.723Z,13.90
2023-01-10T08:12:03.717Z,13.70
2023-01-10T08:13:17.258Z,13.30
2023-01-10T08:14:03.709Z,13.70
2023-01-10T08:15:03.705Z,13.70
2023-01-10T08:16:03.731Z,13.10
2023-01-10T08:17:03.707Z,14.10
2023-01-10T08:18:05.000Z,13.80
2023-01-10T08:19:03.700Z,13.60
2023-01-10T08:20:03.692Z,13.10
2023-01-10T08:21:03.745Z,13.60
2023-01-10T08:22:03.687Z,13.80
2023-01-10T08:23:03.686Z,14.50
2023-01-10T08:24:03.688Z,14.00
2023-01-10T08:25:03.683Z,13.50
2023-01-10T08:26:03.675Z,13.80
2023-01-10T08:27:03.678Z,13.30
2023-01-10T08:28:03.684Z,13.30
2023-01-10T08:29:03.682Z,13.20
2023-01-10T08:30:03.668Z,13.20
2023-01-10T08:31:03.693Z,13.80
2023-01-10T08:32:03.661Z,13.20
2023-01-10T08:33:03.657Z,13.60
2023-01-10T08:34:03.655Z,13.60
2023-01-10T08:35:03.662Z,13.30
2023-01-10T08:36:03.653Z,14.10
2023-01-10T08:37:03.679Z,13.60
2023-01-10T08:38:03.647Z,13.50
2023-01-10T08:39:03.650Z,12.90
2023-01-10T08:40:03.639Z,12.80
2023-01-10T08:41:03.643Z,12.80
2023-01-10T08:42:03.632Z,13.60
2023-01-10T08:43:03.647Z,12.80
2023-01-10T08:44:03.630Z,12.90
2023-01-10T08:45:03.628Z,12.20
2023-01-10T08:46:03.628Z,12.50
2023-01-10T08:47:03.626Z,13.10
2023-01-10T08:48:03.628Z,13.00
2023-01-10T08:49:03.620Z,12.90
2023-01-10T08:50:04.155Z,13.20
2023-01-10T08:51:03.612Z,12.80
2023-01-10T08:52:03.630Z,12.90
2023-01-10T08:53:03.636Z,12.90
2023-01-10T08:54:03.602Z,13.10
2023-01-10T08:55:03.606Z,12.60
2023-01-10T08:56:05.530Z,13.40
2023-01-10T08:57:03.712Z,12.10
2023-01-10T08:58:03.619Z,12.70
2023-01-10T08:59:03.597Z,12.30
2023-01-10T09:00:03.600Z,12.40
2023-01-10T09:01:03.675Z,12.20
2023-01-10T09:02:03.669Z,11.90
2023-01-10T09:03:03.681Z,11.80
2023-01-10T09:04:03.605Z,11.90
2023-01-10T09:05:04.858Z,12.50
2023-01-10T09:06:03.586Z,12.00
2023-01-10T09:07:03.580Z,12.90
2023-01-10T09:08:03.587Z,12.40
2023-01-10T09:09:03.617Z,12.60
2023-01-10T09:10:03.567Z,11.90
2023-01-10T09:11:03.569Z,12.50
2023-01-10T09:12:03.561Z,12.30
2023-01-10T09:13:03.570Z,12.50
2023-01-10T09:14:03.569Z,12.70
2023-01-10T09:15:03.566Z,12.00
2023-01-10T09:16:03.609Z,12.00
2023-01-10T09:17:03.551Z,12.60
2023-01-10T09:18:03.549Z,12.50
2023-01-10T09:19:04.367Z,12.60
2023-01-10T09:20:04.699Z,12.00
2023-01-10T09:21:03.546Z,11.80
2023-01-10T09:22:03.551Z,11.80
2023-01-10T09:23:03.539Z,11.70
2023-01-10T09:24:03.549Z,11.90
2023-01-10T09:25:03.557Z,11.80
2023-01-10T09:26:03.537Z,11.90
2023-01-10T09:27:03.530Z,11.50
2023-01-10T09:28:03.537Z,12.20
2023-01-10T09:29:03.537Z,12.20
2023-01-10T09:30:03.520Z,12.40
2023-01-10T09:31:03.544Z,12.10
2023-01-10T09:32:03.515Z,12.50
2023-01-10T09:33:03.516Z,12.40
2023-01-10T09:34:03.525Z,11.80
2023-01-10T09:35:03.513Z,11.70
2023-01-10T09:36:03.515Z,12.20
2023-01-10T09:37:03.510Z,11.60
2023-01-10T09:38:03.510Z,11.80
2023-01-10T09:39:03.504Z,11.90
2023-01-10T09:40:03.498Z,11.70
2023-01-10T09:41:03.513Z,16.40
2023-01-10T09:42:03.492Z,11.90
2023-01-10T09:43:03.495Z,11.70
2023-01-10T09:44:03.488Z,12.90
2023-01-10T09:45:03.493Z,12.20
2023-01-10T09:46:03.488Z,11.90
2023-01-10T09:47:08.413Z,12.00
2023-01-10T09:48:03.503Z,11.90
2023-01-10T09:49:03.482Z,12.10
2023-01-10T09:50:03.486Z,12.10
2023-01-10T09:51:03.481Z,12.40
2023-01-10T09:52:03.476Z,12.40
2023-01-10T09:53:03.481Z,12.10
2023-01-10T09:54:11.167Z,13.40
2023-01-10T09:55:03.573Z,13.10
2023-01-10T09:56:03.475Z,12.50
2023-01-10T09:57:03.499Z,12.90
2023-01-10T09:58:03.468Z,13.40
2023-01-10T09:59:03.476Z,13.30
2023-01-10T10:00:03.463Z,12.80
2023-01-10T10:01:03.559Z,12.60
2023-01-10T10:02:03.460Z,13.20
2023-01-10T10:03:03.475Z,12.90
2023-01-10T10:04:03.531Z,12.40
2023-01-10T10:05:03.473Z,12.80
2023-01-10T10:06:11.641Z,12.60
2023-01-10T10:07:03.460Z,13.10
2023-01-10T10:08:03.454Z,13.10
2023-01-10T10:09:05.007Z,12.20
2023-01-10T10:10:03.448Z,12.40
2023-01-10T10:11:03.457Z,12.50
2023-01-10T10:12:03.450Z,13.10
2023-01-10T10:13:03.469Z,12.60
2023-01-10T10:14:03.444Z,12.50
2023-01-10T10:15:03.442Z,12.50
2023-01-10T10:16:03.482Z,12.50
2023-01-10T10:17:03.448Z,12.10
2023-01-10T10:18:03.433Z,13.20
2023-01-10T10:19:03.474Z,12.50
2023-01-10T10:20:03.434Z,12.60
2023-01-10T10:21:03.439Z,12.50
2023-01-10T10:22:03.457Z,12.20
2023-01-10T10:23:03.438Z,12.10
2023-01-10T10:24:03.425Z,12.70
2023-01-10T10:25:03.447Z,13.50
2023-01-10T10:26:03.424Z,12.10
2023-01-10T10:27:03.429Z,15.30
2023-01-10T10:28:03.428Z,13.10
2023-01-10T10:29:03.793Z,12.30
2023-01-10T10:30:03.424Z,12.80
2023-01-10T10:31:03.609Z,12.90
2023-01-10T10:32:03.416Z,12.30
2023-01-10T10:33:03.414Z,12.60
2023-01-10T10:34:03.418Z,12.50
2023-01-10T10:35:03.412Z,12.80
2023-01-10T10:36:03.410Z,12.30
2023-01-10T10:37:03.409Z,12.00
2023-01-10T10:38:03.407Z,12.00
2023-01-10T10:39:03.415Z,11.90
2023-01-10T10:40:03.402Z,12.10
2023-01-10T10:41:03.420Z,12.20
2023-01-10T10:42:03.405Z,12.50
2023-01-10T10:43:03.402Z,12.20
2023-01-10T10:44:03.397Z,12.60
2023-01-10T10:45:03.421Z,12.20
2023-01-10T10:46:03.433Z,12.20
2023-01-10T10:47:03.408Z,12.10
2023-01-10T10:48:03.396Z,12.00
2023-01-10T10:49:03.391Z,11.90
2023-01-10T10:50:03.398Z,12.30
2023-01-10T10:51:03.405Z,12.20
2023-01-10T10:52:03.384Z,12.20
2023-01-10T10:53:03.389Z,12.80
2023-01-10T10:54:03.386Z,13.00
2023-01-10T10:55:03.396Z,13.20
2023-01-10T10:56:03.383Z,12.30
2023-01-10T10:57:03.392Z,13.20
2023-01-10T10:58:03.378Z,13.70
2023-01-10T10:59:03.390Z,13.00
2023-01-10T11:00:03.379Z,13.10
2023-01-10T11:01:03.531Z,13.10
2023-01-10T11:02:03.572Z,12.60
2023-01-10T11:03:03.404Z,12.70
2023-01-10T11:04:03.371Z,12.30
2023-01-10T11:05:03.441Z,12.20
2023-01-10T11:06:03.372Z,11.60
2023-01-10T11:07:03.368Z,12.40
2023-01-10T11:08:03.367Z,12.20
2023-01-10T11:09:03.363Z,12.10
2023-01-10T11:10:03.359Z,11.80
2023-01-10T11:11:03.363Z,12.40
2023-01-10T11:12:03.379Z,12.10
2023-01-10T11:13:03.363Z,12.30
2023-01-10T11:14:03.353Z,12.50
2023-01-10T11:15:03.369Z,12.30
2023-01-10T11:16:03.413Z,12.80
2023-01-10T11:17:03.379Z,12.30
2023-01-10T11:18:03.347Z,12.20
2023-01-10T11:19:03.351Z,12.10
2023-01-10T11:20:03.342Z,11.80
2023-01-10T11:21:03.347Z,12.40
2023-01-10T11:22:03.347Z,12.50
2023-01-10T11:23:03.345Z,12.10
2023-01-10T11:24:03.337Z,12.10
2023-01-10T11:25:03.338Z,12.00
2023-01-10T11:26:03.334Z,12.10
2023-01-10T11:27:03.357Z,11.60
2023-01-10T11:28:03.344Z,11.70
2023-01-10T11:29:03.339Z,12.40
2023-01-10T11:30:03.372Z,12.10
2023-01-10T11:31:03.338Z,12.10
2023-01-10T11:32:03.367Z,12.20
2023-01-10T11:33:03.347Z,12.00
2023-01-10T11:34:03.321Z,11.60
2023-01-10T11:35:03.344Z,11.90
2023-01-10T11:36:03.323Z,11.50
2023-01-10T11:37:03.329Z,11.70
2023-01-10T11:38:03.312Z,11.30
2023-01-10T11:39:03.320Z,11.70
2023-01-10T11:40:03.311Z,11.40
2023-01-10T11:41:03.320Z,11.00
2023-01-10T11:42:03.314Z,11.60
2023-01-10T11:43:03.313Z,11.90
2023-01-10T11:44:03.311Z,11.30
2023-01-10T11:45:03.313Z,11.80
2023-01-10T11:46:03.376Z,12.50
2023-01-10T11:47:03.306Z,12.90
2023-01-10T11:48:03.301Z,11.70
2023-01-10T11:49:07.275Z,12.40
2023-01-10T11:50:03.300Z,12.30
2023-01-10T11:51:03.299Z,11.40
2023-01-10T11:52:03.297Z,12.20
2023-01-10T11:53:03.307Z,12.40
2023-01-10T11:54:03.303Z,11.50
2023-01-10T11:55:03.297Z,11.20
2023-01-10T11:56:03.289Z,10.80
2023-01-10T11:57:03.291Z,11.50
2023-01-10T11:58:03.291Z,11.30
2023-01-10T11:59:03.289Z,10.80
2023-01-10T12:00:03.283Z,11.50
2023-01-10T12:01:03.390Z,11.40
2023-01-10T12:02:03.347Z,11.10
2023-01-10T12:03:03.311Z,11.20
2023-01-10T12:04:03.311Z,11.10
2023-01-10T12:05:03.372Z,11.60
2023-01-10T12:06:03.297Z,11.30
2023-01-10T12:07:03.287Z,11.80
2023-01-10T12:08:03.282Z,11.60
2023-01-10T12:09:03.281Z,11.60
2023-01-10T12:10:03.319Z,11.80
2023-01-10T12:11:03.287Z,11.90
2023-01-10T12:12:03.273Z,12.10
2023-01-10T12:13:03.268Z,11.60
2023-01-10T12:14:03.262Z,11.80
2023-01-10T12:15:03.281Z,12.30
2023-01-10T12:16:03.270Z,11.70
2023-01-10T12:17:03.361Z,12.00
2023-01-10T12:18:03.272Z,12.40
2023-01-10T12:19:03.269Z,11.80
2023-01-10T12:20:03.264Z,11.30
2023-01-10T12:21:03.276Z,12.50
2023-01-10T12:22:03.263Z,12.40
2023-01-10T12:23:03.253Z,11.20
2023-01-10T12:24:03.260Z,11.60
2023-01-10T12:25:03.252Z,11.90
2023-01-10T12:26:11.397Z,12.00
2023-01-10T12:27:03.258Z,11.80
2023-01-10T12:28:03.260Z,12.50
2023-01-10T12:29:03.258Z,11.90
2023-01-10T12:30:03.256Z,11.20
2023-01-10T12:31:03.295Z,11.30
2023-01-10T12:32:03.256Z,11.40
2023-01-10T12:33:03.250Z,11.00
2023-01-10T12:34:03.246Z,10.60
2023-01-10T12:35:03.243Z,10.80
2023-01-10T12:36:03.249Z,11.20
2023-01-10T12:37:03.263Z,11.20
2023-01-10T12:38:03.243Z,11.60
2023-01-10T12:39:03.235Z,11.10
2023-01-10T12:40:03.259Z,11.10
2023-01-10T12:41:03.251Z,11.00
2023-01-10T12:42:03.240Z,11.40
2023-01-10T12:43:03.240Z,11.70
2023-01-10T12:44:03.237Z,11.60
2023-01-10T12:45:03.229Z,11.30
2023-01-10T12:46:12.753Z,11.50
2023-01-10T12:47:10.056Z,10.60
2023-01-10T12:48:03.235Z,10.30
2023-01-10T12:49:03.222Z,10.60
2023-01-10T12:50:03.226Z,10.00
2023-01-10T12:51:03.225Z,11.80
2023-01-10T12:52:03.223Z,11.70